sensor_id;sensor_type;location;lat;lon;timestamp;P1;durP1;ratioP1;P2;durP2;ratioP2
83688;SDS011;74527;43.224;0.108;2024-01-06T00:01:53;11.07;;;3.63;;
83688;SDS011;74527;43.224;0.108;2024-01-06T00:04:19;6.07;;;2.90;;
83688;SDS011;74527;43.224;0.108;2024-01-06T00:06:45;10.57;;;3.10;;
83688;SDS011;74527;43.224;0.108;2024-01-06T00:09:11;6.07;;;3.20;;
83688;SDS011;74527;43.224;0.108;2024-01-06T00:11:37;12.65;;;4.40;;
83688;SDS011;74527;43.224;0.108;2024-01-06T00:14:03;7.60;;;3.35;;
83688;SDS011;74527;43.224;0.108;2024-01-06T00:16:29;9.52;;;4.47;;
83688;SDS011;74527;43.224;0.108;2024-01-06T00:18:55;8.57;;;4.45;;
83688;SDS011;74527;43.224;0.108;2024-01-06T00:21:21;13.13;;;4.95;;
83688;SDS011;74527;43.224;0.108;2024-01-06T00:23:47;13.40;;;5.88;;
83688;SDS011;74527;43.224;0.108;2024-01-06T00:26:13;45.45;;;14.55;;
83688;SDS011;74527;43.224;0.108;2024-01-06T00:28:39;80.57;;;24.77;;
83688;SDS011;74527;43.224;0.108;2024-01-06T00:31:05;77.60;;;21.45;;
83688;SDS011;74527;43.224;0.108;2024-01-06T00:33:31;54.00;;;18.08;;
83688;SDS011;74527;43.224;0.108;2024-01-06T00:35:57;21.15;;;8.20;;
83688;SDS011;74527;43.224;0.108;2024-01-06T00:38:23;17.23;;;6.93;;
83688;SDS011;74527;43.224;0.108;2024-01-06T00:40:49;9.50;;;5.50;;
83688;SDS011;74527;43.224;0.108;2024-01-06T00:43:15;12.80;;;5.97;;
83688;SDS011;74527;43.224;0.108;2024-01-06T00:45:41;15.73;;;5.30;;
83688;SDS011;74527;43.224;0.108;2024-01-06T00:48:07;12.52;;;5.95;;
83688;SDS011;74527;43.224;0.108;2024-01-06T00:50:34;10.40;;;5.80;;
83688;SDS011;74527;43.224;0.108;2024-01-06T00:53:00;10.15;;;5.70;;
83688;SDS011;74527;43.224;0.108;2024-01-06T00:55:26;10.50;;;5.07;;
83688;SDS011;74527;43.224;0.108;2024-01-06T00:57:52;11.93;;;4.72;;
83688;SDS011;74527;43.224;0.108;2024-01-06T01:00:18;11.18;;;5.50;;
83688;SDS011;74527;43.224;0.108;2024-01-06T01:02:44;11.27;;;4.78;;
83688;SDS011;74527;43.224;0.108;2024-01-06T01:05:10;8.13;;;4.25;;
83688;SDS011;74527;43.224;0.108;2024-01-06T01:07:36;9.27;;;3.70;;
83688;SDS011;74527;43.224;0.108;2024-01-06T01:10:02;9.00;;;3.97;;
83688;SDS011;74527;43.224;0.108;2024-01-06T01:12:29;6.90;;;3.70;;
83688;SDS011;74527;43.224;0.108;2024-01-06T01:14:55;5.05;;;3.75;;
83688;SDS011;74527;43.224;0.108;2024-01-06T01:17:21;6.20;;;3.95;;
83688;SDS011;74527;43.224;0.108;2024-01-06T01:19:47;5.97;;;3.97;;
83688;SDS011;74527;43.224;0.108;2024-01-06T01:22:13;9.70;;;4.80;;
83688;SDS011;74527;43.224;0.108;2024-01-06T01:24:40;7.25;;;4.03;;
83688;SDS011;74527;43.224;0.108;2024-01-06T01:27:07;7.55;;;3.95;;
83688;SDS011;74527;43.224;0.108;2024-01-06T01:29:33;10.93;;;4.40;;
83688;SDS011;74527;43.224;0.108;2024-01-06T01:31:59;8.77;;;4.40;;
83688;SDS011;74527;43.224;0.108;2024-01-06T01:34:25;9.13;;;4.43;;
83688;SDS011;74527;43.224;0.108;2024-01-06T01:36:51;20.92;;;6.03;;
83688;SDS011;74527;43.224;0.108;2024-01-06T01:39:17;9.40;;;4.15;;
83688;SDS011;74527;43.224;0.108;2024-01-06T01:41:43;15.20;;;4.82;;
83688;SDS011;74527;43.224;0.108;2024-01-06T01:44:09;6.15;;;4.40;;
83688;SDS011;74527;43.224;0.108;2024-01-06T01:46:35;11.30;;;5.00;;
83688;SDS011;74527;43.224;0.108;2024-01-06T01:49:02;11.38;;;4.63;;
83688;SDS011;74527;43.224;0.108;2024-01-06T01:51:29;5.75;;;3.63;;
83688;SDS011;74527;43.224;0.108;2024-01-06T01:53:56;11.38;;;3.97;;
83688;SDS011;74527;43.224;0.108;2024-01-06T01:56:23;10.25;;;4.22;;
83688;SDS011;74527;43.224;0.108;2024-01-06T01:58:49;6.72;;;3.97;;
83688;SDS011;74527;43.224;0.108;2024-01-06T02:01:15;8.82;;;3.35;;
83688;SDS011;74527;43.224;0.108;2024-01-06T02:03:41;11.30;;;3.28;;
83688;SDS011;74527;43.224;0.108;2024-01-06T02:06:10;7.05;;;3.15;;
83688;SDS011;74527;43.224;0.108;2024-01-06T02:08:37;4.20;;;2.60;;
83688;SDS011;74527;43.224;0.108;2024-01-06T02:11:03;3.05;;;1.90;;
83688;SDS011;74527;43.224;0.108;2024-01-06T02:13:33;6.90;;;2.72;;
83688;SDS011;74527;43.224;0.108;2024-01-06T02:16:00;9.45;;;2.95;;
83688;SDS011;74527;43.224;0.108;2024-01-06T02:18:26;5.57;;;2.35;;
83688;SDS011;74527;43.224;0.108;2024-01-06T02:20:52;11.10;;;2.35;;
83688;SDS011;74527;43.224;0.108;2024-01-06T02:23:18;6.80;;;3.97;;
83688;SDS011;74527;43.224;0.108;2024-01-06T02:25:44;4.60;;;1.83;;
83688;SDS011;74527;43.224;0.108;2024-01-06T02:28:10;4.47;;;2.00;;
83688;SDS011;74527;43.224;0.108;2024-01-06T02:30:36;6.05;;;1.58;;
83688;SDS011;74527;43.224;0.108;2024-01-06T02:33:02;2.97;;;1.70;;
83688;SDS011;74527;43.224;0.108;2024-01-06T02:35:29;7.25;;;1.90;;
83688;SDS011;74527;43.224;0.108;2024-01-06T02:37:55;2.08;;;1.60;;
83688;SDS011;74527;43.224;0.108;2024-01-06T02:40:21;3.08;;;1.38;;
83688;SDS011;74527;43.224;0.108;2024-01-06T02:42:47;4.63;;;1.58;;
83688;SDS011;74527;43.224;0.108;2024-01-06T02:45:13;4.18;;;1.67;;
83688;SDS011;74527;43.224;0.108;2024-01-06T02:47:39;4.55;;;1.73;;
83688;SDS011;74527;43.224;0.108;2024-01-06T02:50:05;4.65;;;1.50;;
83688;SDS011;74527;43.224;0.108;2024-01-06T02:52:31;4.05;;;1.23;;
83688;SDS011;74527;43.224;0.108;2024-01-06T02:54:57;1.10;;;1.10;;
83688;SDS011;74527;43.224;0.108;2024-01-06T02:57:23;2.50;;;0.88;;
83688;SDS011;74527;43.224;0.108;2024-01-06T02:59:49;3.35;;;0.80;;
83688;SDS011;74527;43.224;0.108;2024-01-06T03:02:16;1.95;;;0.80;;
83688;SDS011;74527;43.224;0.108;2024-01-06T03:04:42;2.70;;;0.98;;
83688;SDS011;74527;43.224;0.108;2024-01-06T03:07:08;3.35;;;0.60;;
83688;SDS011;74527;43.224;0.108;2024-01-06T03:09:34;1.85;;;0.82;;
83688;SDS011;74527;43.224;0.108;2024-01-06T03:12:00;0.50;;;0.50;;
83688;SDS011;74527;43.224;0.108;2024-01-06T03:14:26;1.77;;;0.80;;
83688;SDS011;74527;43.224;0.108;2024-01-06T03:16:52;1.75;;;0.77;;
83688;SDS011;74527;43.224;0.108;2024-01-06T03:19:18;3.15;;;2.03;;
83688;SDS011;74527;43.224;0.108;2024-01-06T03:21:44;1.92;;;0.60;;
83688;SDS011;74527;43.224;0.108;2024-01-06T03:24:10;1.80;;;0.80;;
83688;SDS011;74527;43.224;0.108;2024-01-06T03:26:36;4.55;;;0.75;;
83688;SDS011;74527;43.224;0.108;2024-01-06T03:29:02;5.20;;;1.08;;
83688;SDS011;74527;43.224;0.108;2024-01-06T03:31:29;0.65;;;0.63;;
83688;SDS011;74527;43.224;0.108;2024-01-06T03:33:55;0.98;;;0.80;;
83688;SDS011;74527;43.224;0.108;2024-01-06T03:36:21;1.65;;;0.68;;
83688;SDS011;74527;43.224;0.108;2024-01-06T03:38:47;0.75;;;0.43;;
83688;SDS011;74527;43.224;0.108;2024-01-06T03:41:13;0.60;;;0.50;;
83688;SDS011;74527;43.224;0.108;2024-01-06T03:43:39;0.55;;;0.52;;
83688;SDS011;74527;43.224;0.108;2024-01-06T03:46:05;1.70;;;0.75;;
83688;SDS011;74527;43.224;0.108;2024-01-06T03:48:31;1.88;;;0.65;;
83688;SDS011;74527;43.224;0.108;2024-01-06T03:51:01;0.88;;;0.60;;
83688;SDS011;74527;43.224;0.108;2024-01-06T03:53:27;1.38;;;0.30;;
83688;SDS011;74527;43.224;0.108;2024-01-06T03:55:53;2.17;;;0.60;;
83688;SDS011;74527;43.224;0.108;2024-01-06T03:58:19;1.13;;;0.30;;
83688;SDS011;74527;43.224;0.108;2024-01-06T04:00:45;1.33;;;0.47;;
83688;SDS011;74527;43.224;0.108;2024-01-06T04:03:11;3.50;;;0.43;;
83688;SDS011;74527;43.224;0.108;2024-01-06T04:05:37;3.55;;;0.57;;
83688;SDS011;74527;43.224;0.108;2024-01-06T04:08:03;2.60;;;0.77;;
83688;SDS011;74527;43.224;0.108;2024-01-06T04:10:29;0.60;;;0.60;;
83688;SDS011;74527;43.224;0.108;2024-01-06T04:12:55;3.33;;;0.80;;
83688;SDS011;74527;43.224;0.108;2024-01-06T04:15:21;2.38;;;0.50;;
83688;SDS011;74527;43.224;0.108;2024-01-06T04:17:48;4.03;;;0.88;;
83688;SDS011;74527;43.224;0.108;2024-01-06T04:20:14;1.30;;;0.50;;
83688;SDS011;74527;43.224;0.108;2024-01-06T04:22:40;3.03;;;0.50;;
83688;SDS011;74527;43.224;0.108;2024-01-06T04:25:06;2.08;;;0.52;;
83688;SDS011;74527;43.224;0.108;2024-01-06T04:27:32;2.33;;;0.57;;
83688;SDS011;74527;43.224;0.108;2024-01-06T04:29:59;2.30;;;0.38;;
83688;SDS011;74527;43.224;0.108;2024-01-06T04:32:25;1.25;;;0.40;;
83688;SDS011;74527;43.224;0.108;2024-01-06T04:34:51;0.95;;;0.60;;
83688;SDS011;74527;43.224;0.108;2024-01-06T04:37:17;4.80;;;0.40;;
83688;SDS011;74527;43.224;0.108;2024-01-06T04:39:44;1.58;;;0.50;;
83688;SDS011;74527;43.224;0.108;2024-01-06T04:42:10;2.10;;;0.50;;
83688;SDS011;74527;43.224;0.108;2024-01-06T04:44:36;2.25;;;0.40;;
83688;SDS011;74527;43.224;0.108;2024-01-06T04:47:02;1.05;;;0.60;;
83688;SDS011;74527;43.224;0.108;2024-01-06T04:49:28;1.42;;;0.43;;
83688;SDS011;74527;43.224;0.108;2024-01-06T04:51:54;0.70;;;0.55;;
83688;SDS011;74527;43.224;0.108;2024-01-06T04:54:20;4.25;;;0.60;;
83688;SDS011;74527;43.224;0.108;2024-01-06T04:56:46;2.17;;;0.50;;
83688;SDS011;74527;43.224;0.108;2024-01-06T04:59:13;1.30;;;0.68;;
83688;SDS011;74527;43.224;0.108;2024-01-06T05:01:39;0.80;;;0.55;;
83688;SDS011;74527;43.224;0.108;2024-01-06T05:04:05;3.50;;;0.60;;
83688;SDS011;74527;43.224;0.108;2024-01-06T05:06:31;3.08;;;0.73;;
83688;SDS011;74527;43.224;0.108;2024-01-06T05:08:57;3.15;;;0.40;;
83688;SDS011;74527;43.224;0.108;2024-01-06T05:11:23;0.88;;;0.40;;
83688;SDS011;74527;43.224;0.108;2024-01-06T05:13:49;0.75;;;0.55;;
83688;SDS011;74527;43.224;0.108;2024-01-06T05:16:15;0.85;;;0.50;;
83688;SDS011;74527;43.224;0.108;2024-01-06T05:18:41;1.75;;;0.40;;
83688;SDS011;74527;43.224;0.108;2024-01-06T05:21:07;2.08;;;0.43;;
83688;SDS011;74527;43.224;0.108;2024-01-06T05:23:33;0.60;;;0.40;;
83688;SDS011;74527;43.224;0.108;2024-01-06T05:25:59;1.40;;;0.40;;
83688;SDS011;74527;43.224;0.108;2024-01-06T05:28:25;7.35;;;0.30;;
83688;SDS011;74527;43.224;0.108;2024-01-06T05:30:51;0.75;;;0.50;;
83688;SDS011;74527;43.224;0.108;2024-01-06T05:33:17;6.57;;;0.73;;
83688;SDS011;74527;43.224;0.108;2024-01-06T05:35:43;0.95;;;0.50;;
83688;SDS011;74527;43.224;0.108;2024-01-06T05:38:09;22.50;;;13.00;;
83688;SDS011;74527;43.224;0.108;2024-01-06T05:40:35;19.30;;;10.80;;
83688;SDS011;74527;43.224;0.108;2024-01-06T05:43:01;1.58;;;0.68;;
83688;SDS011;74527;43.224;0.108;2024-01-06T05:45:27;8.35;;;0.88;;
83688;SDS011;74527;43.224;0.108;2024-01-06T05:47:53;0.40;;;0.40;;
83688;SDS011;74527;43.224;0.108;2024-01-06T05:50:19;2.17;;;0.30;;
83688;SDS011;74527;43.224;0.108;2024-01-06T05:52:45;6.30;;;1.50;;
83688;SDS011;74527;43.224;0.108;2024-01-06T05:55:13;2.90;;;1.73;;
83688;SDS011;74527;43.224;0.108;2024-01-06T05:57:39;4.03;;;2.22;;
83688;SDS011;74527;43.224;0.108;2024-01-06T06:00:08;14.30;;;5.80;;
83688;SDS011;74527;43.224;0.108;2024-01-06T06:02:36;68.80;;;27.95;;
83688;SDS011;74527;43.224;0.108;2024-01-06T06:05:02;5.63;;;2.00;;
83688;SDS011;74527;43.224;0.108;2024-01-06T06:07:28;0.90;;;0.90;;
83688;SDS011;74527;43.224;0.108;2024-01-06T06:09:54;0.47;;;0.38;;
83688;SDS011;74527;43.224;0.108;2024-01-06T06:12:20;3.22;;;0.50;;
83688;SDS011;74527;43.224;0.108;2024-01-06T06:14:46;1.40;;;0.38;;
83688;SDS011;74527;43.224;0.108;2024-01-06T06:17:12;2.63;;;0.30;;
83688;SDS011;74527;43.224;0.108;2024-01-06T06:19:38;0.10;;;0.10;;
83688;SDS011;74527;43.224;0.108;2024-01-06T06:22:04;4.43;;;0.35;;
83688;SDS011;74527;43.224;0.108;2024-01-06T06:24:30;1.70;;;0.30;;
83688;SDS011;74527;43.224;0.108;2024-01-06T06:26:56;0.90;;;0.20;;
83688;SDS011;74527;43.224;0.108;2024-01-06T06:29:24;0.20;;;0.20;;
83688;SDS011;74527;43.224;0.108;2024-01-06T06:31:50;0.20;;;0.20;;
83688;SDS011;74527;43.224;0.108;2024-01-06T06:34:16;0.20;;;0.10;;
83688;SDS011;74527;43.224;0.108;2024-01-06T06:36:42;1.98;;;0.38;;
83688;SDS011;74527;43.224;0.108;2024-01-06T06:39:08;0.22;;;0.22;;
83688;SDS011;74527;43.224;0.108;2024-01-06T06:41:34;1.13;;;0.20;;
83688;SDS011;74527;43.224;0.108;2024-01-06T06:44:00;0.90;;;0.30;;
83688;SDS011;74527;43.224;0.108;2024-01-06T06:46:26;0.47;;;0.32;;
83688;SDS011;74527;43.224;0.108;2024-01-06T06:48:52;0.20;;;0.10;;
83688;SDS011;74527;43.224;0.108;2024-01-06T06:51:18;0.95;;;0.20;;
83688;SDS011;74527;43.224;0.108;2024-01-06T06:53:46;1.23;;;0.30;;
83688;SDS011;74527;43.224;0.108;2024-01-06T06:56:12;0.30;;;0.30;;
83688;SDS011;74527;43.224;0.108;2024-01-06T06:58:42;1.08;;;0.52;;
83688;SDS011;74527;43.224;0.108;2024-01-06T07:01:08;0.85;;;0.40;;
83688;SDS011;74527;43.224;0.108;2024-01-06T07:03:34;3.65;;;0.45;;
83688;SDS011;74527;43.224;0.108;2024-01-06T07:06:00;0.80;;;0.57;;
83688;SDS011;74527;43.224;0.108;2024-01-06T07:08:26;0.60;;;0.60;;
83688;SDS011;74527;43.224;0.108;2024-01-06T07:10:52;0.93;;;0.50;;
83688;SDS011;74527;43.224;0.108;2024-01-06T07:13:18;1.38;;;0.50;;
83688;SDS011;74527;43.224;0.108;2024-01-06T07:15:44;0.77;;;0.77;;
83688;SDS011;74527;43.224;0.108;2024-01-06T07:18:10;0.98;;;0.75;;
83688;SDS011;74527;43.224;0.108;2024-01-06T07:20:36;0.40;;;0.40;;
83688;SDS011;74527;43.224;0.108;2024-01-06T07:23:02;0.65;;;0.60;;
83688;SDS011;74527;43.224;0.108;2024-01-06T07:25:28;0.70;;;0.50;;
83688;SDS011;74527;43.224;0.108;2024-01-06T07:27:55;0.50;;;0.50;;
83688;SDS011;74527;43.224;0.108;2024-01-06T07:30:21;0.30;;;0.30;;
83688;SDS011;74527;43.224;0.108;2024-01-06T07:32:47;1.58;;;0.38;;
83688;SDS011;74527;43.224;0.108;2024-01-06T07:35:15;1.23;;;0.30;;
83688;SDS011;74527;43.224;0.108;2024-01-06T07:37:41;0.85;;;0.28;;
83688;SDS011;74527;43.224;0.108;2024-01-06T07:40:07;0.32;;;0.32;;
83688;SDS011;74527;43.224;0.108;2024-01-06T07:42:34;0.38;;;0.38;;
83688;SDS011;74527;43.224;0.108;2024-01-06T07:45:00;0.38;;;0.38;;
83688;SDS011;74527;43.224;0.108;2024-01-06T07:47:27;0.50;;;0.50;;
83688;SDS011;74527;43.224;0.108;2024-01-06T07:49:53;3.92;;;0.68;;
83688;SDS011;74527;43.224;0.108;2024-01-06T07:52:19;0.60;;;0.60;;
83688;SDS011;74527;43.224;0.108;2024-01-06T07:54:45;0.80;;;0.20;;
83688;SDS011;74527;43.224;0.108;2024-01-06T07:57:11;1.65;;;0.50;;
83688;SDS011;74527;43.224;0.108;2024-01-06T07:59:38;2.50;;;0.50;;
83688;SDS011;74527;43.224;0.108;2024-01-06T08:02:04;2.90;;;0.60;;
83688;SDS011;74527;43.224;0.108;2024-01-06T08:04:30;2.80;;;2.00;;
83688;SDS011;74527;43.224;0.108;2024-01-06T08:06:56;1.50;;;0.68;;
83688;SDS011;74527;43.224;0.108;2024-01-06T08:09:22;1.08;;;0.98;;
83688;SDS011;74527;43.224;0.108;2024-01-06T08:11:51;2.80;;;1.33;;
83688;SDS011;74527;43.224;0.108;2024-01-06T08:14:17;1.17;;;1.00;;
83688;SDS011;74527;43.224;0.108;2024-01-06T08:16:44;0.90;;;0.90;;
83688;SDS011;74527;43.224;0.108;2024-01-06T08:19:10;1.13;;;0.90;;
83688;SDS011;74527;43.224;0.108;2024-01-06T08:21:36;0.80;;;0.68;;
83688;SDS011;74527;43.224;0.108;2024-01-06T08:24:02;1.52;;;0.75;;
83688;SDS011;74527;43.224;0.108;2024-01-06T08:26:28;1.23;;;0.90;;
83688;SDS011;74527;43.224;0.108;2024-01-06T08:28:54;4.65;;;1.08;;
83688;SDS011;74527;43.224;0.108;2024-01-06T08:31:20;0.80;;;0.60;;
83688;SDS011;74527;43.224;0.108;2024-01-06T08:33:48;1.05;;;0.90;;
83688;SDS011;74527;43.224;0.108;2024-01-06T08:36:14;1.92;;;0.98;;
83688;SDS011;74527;43.224;0.108;2024-01-06T08:38:40;1.50;;;0.70;;
83688;SDS011;74527;43.224;0.108;2024-01-06T08:41:06;0.57;;;0.57;;
83688;SDS011;74527;43.224;0.108;2024-01-06T08:43:32;0.88;;;0.40;;
83688;SDS011;74527;43.224;0.108;2024-01-06T08:45:58;0.82;;;0.63;;
83688;SDS011;74527;43.224;0.108;2024-01-06T08:48:25;0.88;;;0.73;;
83688;SDS011;74527;43.224;0.108;2024-01-06T08:50:51;0.68;;;0.68;;
83688;SDS011;74527;43.224;0.108;2024-01-06T08:53:17;3.90;;;0.70;;
83688;SDS011;74527;43.224;0.108;2024-01-06T08:55:43;1.63;;;0.50;;
83688;SDS011;74527;43.224;0.108;2024-01-06T08:58:09;1.65;;;1.13;;
83688;SDS011;74527;43.224;0.108;2024-01-06T09:00:35;4.18;;;0.70;;
83688;SDS011;74527;43.224;0.108;2024-01-06T09:03:01;1.40;;;1.17;;
83688;SDS011;74527;43.224;0.108;2024-01-06T09:05:27;1.08;;;0.60;;
83688;SDS011;74527;43.224;0.108;2024-01-06T09:07:53;1.55;;;0.80;;
83688;SDS011;74527;43.224;0.108;2024-01-06T09:10:19;0.98;;;0.77;;
83688;SDS011;74527;43.224;0.108;2024-01-06T09:12:45;1.80;;;1.25;;
83688;SDS011;74527;43.224;0.108;2024-01-06T09:15:11;1.70;;;1.55;;
83688;SDS011;74527;43.224;0.108;2024-01-06T09:17:37;1.67;;;1.58;;
83688;SDS011;74527;43.224;0.108;2024-01-06T09:20:03;6.57;;;3.38;;
83688;SDS011;74527;43.224;0.108;2024-01-06T09:22:30;5.45;;;4.13;;
83688;SDS011;74527;43.224;0.108;2024-01-06T09:24:57;7.30;;;5.28;;
83688;SDS011;74527;43.224;0.108;2024-01-06T09:27:24;9.98;;;5.05;;
83688;SDS011;74527;43.224;0.108;2024-01-06T09:29:50;2.88;;;1.52;;
83688;SDS011;74527;43.224;0.108;2024-01-06T09:32:16;1.75;;;1.30;;
83688;SDS011;74527;43.224;0.108;2024-01-06T09:34:42;5.20;;;1.60;;
83688;SDS011;74527;43.224;0.108;2024-01-06T09:37:08;4.40;;;1.38;;
83688;SDS011;74527;43.224;0.108;2024-01-06T09:39:34;2.58;;;1.00;;
83688;SDS011;74527;43.224;0.108;2024-01-06T09:42:00;8.55;;;5.38;;
83688;SDS011;74527;43.224;0.108;2024-01-06T09:44:26;5.68;;;4.93;;
83688;SDS011;74527;43.224;0.108;2024-01-06T09:46:52;3.20;;;2.97;;
83688;SDS011;74527;43.224;0.108;2024-01-06T09:49:22;1.70;;;1.60;;
83688;SDS011;74527;43.224;0.108;2024-01-06T09:54:16;9.40;;;4.83;;
83688;SDS011;74527;43.224;0.108;2024-01-06T09:56:49;2.45;;;1.50;;
83688;SDS011;74527;43.224;0.108;2024-01-06T09:59:15;3.38;;;0.98;;
83688;SDS011;74527;43.224;0.108;2024-01-06T10:01:41;3.85;;;2.20;;
83688;SDS011;74527;43.224;0.108;2024-01-06T10:04:08;3.65;;;1.75;;
83688;SDS011;74527;43.224;0.108;2024-01-06T10:06:34;4.60;;;2.03;;
83688;SDS011;74527;43.224;0.108;2024-01-06T10:09:01;5.28;;;3.92;;
83688;SDS011;74527;43.224;0.108;2024-01-06T10:11:29;3.72;;;2.67;;
83688;SDS011;74527;43.224;0.108;2024-01-06T10:13:55;4.75;;;1.40;;
83688;SDS011;74527;43.224;0.108;2024-01-06T10:16:21;2.40;;;0.98;;
83688;SDS011;74527;43.224;0.108;2024-01-06T10:18:48;3.50;;;1.25;;
83688;SDS011;74527;43.224;0.108;2024-01-06T10:21:14;1.98;;;1.30;;
83688;SDS011;74527;43.224;0.108;2024-01-06T10:23:42;2.90;;;2.25;;
83688;SDS011;74527;43.224;0.108;2024-01-06T10:26:13;4.45;;;1.40;;
83688;SDS011;74527;43.224;0.108;2024-01-06T10:28:39;2.33;;;0.85;;
83688;SDS011;74527;43.224;0.108;2024-01-06T10:31:07;1.80;;;0.80;;
83688;SDS011;74527;43.224;0.108;2024-01-06T10:33:33;1.25;;;1.10;;
83688;SDS011;74527;43.224;0.108;2024-01-06T10:36:00;3.95;;;1.10;;
83688;SDS011;74527;43.224;0.108;2024-01-06T10:38:28;2.13;;;1.10;;
83688;SDS011;74527;43.224;0.108;2024-01-06T10:41:01;2.80;;;1.17;;
83688;SDS011;74527;43.224;0.108;2024-01-06T10:43:32;2.22;;;1.80;;
83688;SDS011;74527;43.224;0.108;2024-01-06T10:46:02;2.40;;;2.25;;
83688;SDS011;74527;43.224;0.108;2024-01-06T10:48:32;2.33;;;1.90;;
83688;SDS011;74527;43.224;0.108;2024-01-06T10:51:00;3.85;;;1.77;;
83688;SDS011;74527;43.224;0.108;2024-01-06T10:53:32;3.85;;;3.40;;
83688;SDS011;74527;43.224;0.108;2024-01-06T10:58:27;4.78;;;2.17;;
83688;SDS011;74527;43.224;0.108;2024-01-06T11:00:55;5.07;;;2.45;;
83688;SDS011;74527;43.224;0.108;2024-01-06T11:03:21;2.95;;;1.00;;
83688;SDS011;74527;43.224;0.108;2024-01-06T11:05:47;3.70;;;0.82;;
83688;SDS011;74527;43.224;0.108;2024-01-06T11:08:13;2.42;;;1.13;;
83688;SDS011;74527;43.224;0.108;2024-01-06T11:13:08;1.65;;;0.90;;
83688;SDS011;74527;43.224;0.108;2024-01-06T11:15:44;0.90;;;0.55;;
83688;SDS011;74527;43.224;0.108;2024-01-06T11:26:38;2.47;;;0.70;;
83688;SDS011;74527;43.224;0.108;2024-01-06T11:29:05;0.73;;;0.70;;
83688;SDS011;74527;43.224;0.108;2024-01-06T11:31:31;1.23;;;1.00;;
83688;SDS011;74527;43.224;0.108;2024-01-06T11:33:58;3.90;;;1.40;;
83688;SDS011;74527;43.224;0.108;2024-01-06T11:36:37;3.63;;;2.08;;
83688;SDS011;74527;43.224;0.108;2024-01-06T11:39:04;5.50;;;1.73;;
83688;SDS011;74527;43.224;0.108;2024-01-06T11:41:49;3.10;;;1.10;;
83688;SDS011;74527;43.224;0.108;2024-01-06T11:44:22;2.88;;;1.23;;
83688;SDS011;74527;43.224;0.108;2024-01-06T11:46:48;4.60;;;1.55;;
83688;SDS011;74527;43.224;0.108;2024-01-06T11:49:15;1.50;;;1.20;;
83688;SDS011;74527;43.224;0.108;2024-01-06T11:51:41;2.03;;;0.90;;
83688;SDS011;74527;43.224;0.108;2024-01-06T11:54:08;3.60;;;0.70;;
83688;SDS011;74527;43.224;0.108;2024-01-06T11:56:35;3.67;;;1.00;;
83688;SDS011;74527;43.224;0.108;2024-01-06T11:59:01;3.30;;;1.95;;
83688;SDS011;74527;43.224;0.108;2024-01-06T12:01:27;7.50;;;1.60;;
83688;SDS011;74527;43.224;0.108;2024-01-06T12:03:54;9.20;;;1.77;;
83688;SDS011;74527;43.224;0.108;2024-01-06T12:06:21;8.70;;;1.70;;
83688;SDS011;74527;43.224;0.108;2024-01-06T12:08:47;2.90;;;1.40;;
83688;SDS011;74527;43.224;0.108;2024-01-06T12:11:13;1.50;;;1.13;;
83688;SDS011;74527;43.224;0.108;2024-01-06T12:13:46;9.02;;;2.05;;
83688;SDS011;74527;43.224;0.108;2024-01-06T12:16:12;2.85;;;1.08;;
83688;SDS011;74527;43.224;0.108;2024-01-06T12:18:38;18.55;;;9.77;;
83688;SDS011;74527;43.224;0.108;2024-01-06T12:21:04;2.22;;;1.98;;
83688;SDS011;74527;43.224;0.108;2024-01-06T12:23:30;3.35;;;2.38;;
83688;SDS011;74527;43.224;0.108;2024-01-06T12:25:56;3.15;;;2.83;;
83688;SDS011;74527;43.224;0.108;2024-01-06T12:28:22;3.65;;;2.53;;
83688;SDS011;74527;43.224;0.108;2024-01-06T12:30:48;2.88;;;1.92;;
83688;SDS011;74527;43.224;0.108;2024-01-06T12:33:14;3.50;;;1.40;;
83688;SDS011;74527;43.224;0.108;2024-01-06T12:35:40;3.60;;;1.38;;
83688;SDS011;74527;43.224;0.108;2024-01-06T12:38:08;4.38;;;1.70;;
83688;SDS011;74527;43.224;0.108;2024-01-06T12:40:37;2.42;;;1.38;;
83688;SDS011;74527;43.224;0.108;2024-01-06T12:43:04;2.42;;;1.10;;
83688;SDS011;74527;43.224;0.108;2024-01-06T12:45:30;4.97;;;1.42;;
83688;SDS011;74527;43.224;0.108;2024-01-06T12:47:56;3.15;;;1.33;;
83688;SDS011;74527;43.224;0.108;2024-01-06T12:50:22;4.95;;;2.22;;
83688;SDS011;74527;43.224;0.108;2024-01-06T12:52:48;8.00;;;1.95;;
83688;SDS011;74527;43.224;0.108;2024-01-06T12:55:14;6.43;;;1.50;;
83688;SDS011;74527;43.224;0.108;2024-01-06T12:57:41;2.22;;;1.15;;
83688;SDS011;74527;43.224;0.108;2024-01-06T13:00:08;7.05;;;2.10;;
83688;SDS011;74527;43.224;0.108;2024-01-06T13:02:36;9.48;;;1.30;;
83688;SDS011;74527;43.224;0.108;2024-01-06T13:05:03;5.47;;;1.42;;
83688;SDS011;74527;43.224;0.108;2024-01-06T13:07:29;4.88;;;1.38;;
83688;SDS011;74527;43.224;0.108;2024-01-06T13:09:56;2.60;;;1.83;;
83688;SDS011;74527;43.224;0.108;2024-01-06T13:12:22;1.73;;;1.40;;
83688;SDS011;74527;43.224;0.108;2024-01-06T13:14:49;6.13;;;3.22;;
83688;SDS011;74527;43.224;0.108;2024-01-06T13:17:16;2.47;;;1.33;;
83688;SDS011;74527;43.224;0.108;2024-01-06T13:19:42;8.25;;;1.58;;
83688;SDS011;74527;43.224;0.108;2024-01-06T13:22:08;4.38;;;2.03;;
83688;SDS011;74527;43.224;0.108;2024-01-06T13:24:34;4.30;;;1.58;;
83688;SDS011;74527;43.224;0.108;2024-01-06T13:27:00;2.92;;;1.40;;
83688;SDS011;74527;43.224;0.108;2024-01-06T13:29:28;4.13;;;1.33;;
83688;SDS011;74527;43.224;0.108;2024-01-06T13:31:54;8.52;;;2.00;;
83688;SDS011;74527;43.224;0.108;2024-01-06T13:34:22;3.00;;;1.83;;
83688;SDS011;74527;43.224;0.108;2024-01-06T13:36:48;6.65;;;2.15;;
83688;SDS011;74527;43.224;0.108;2024-01-06T13:39:14;4.90;;;2.72;;
83688;SDS011;74527;43.224;0.108;2024-01-06T13:41:45;6.57;;;1.75;;
83688;SDS011;74527;43.224;0.108;2024-01-06T13:44:12;3.17;;;1.95;;
83688;SDS011;74527;43.224;0.108;2024-01-06T13:46:38;1.67;;;1.13;;
83688;SDS011;74527;43.224;0.108;2024-01-06T13:49:09;4.32;;;1.48;;
83688;SDS011;74527;43.224;0.108;2024-01-06T13:51:35;10.25;;;2.55;;
83688;SDS011;74527;43.224;0.108;2024-01-06T13:54:01;3.15;;;2.00;;
83688;SDS011;74527;43.224;0.108;2024-01-06T13:56:27;8.30;;;3.22;;
83688;SDS011;74527;43.224;0.108;2024-01-06T13:58:53;7.13;;;2.30;;
83688;SDS011;74527;43.224;0.108;2024-01-06T14:01:19;2.67;;;2.08;;
83688;SDS011;74527;43.224;0.108;2024-01-06T14:03:45;1.60;;;1.50;;
83688;SDS011;74527;43.224;0.108;2024-01-06T14:06:11;6.38;;;1.15;;
83688;SDS011;74527;43.224;0.108;2024-01-06T14:08:38;3.30;;;2.00;;
83688;SDS011;74527;43.224;0.108;2024-01-06T14:11:04;1.85;;;1.45;;
83688;SDS011;74527;43.224;0.108;2024-01-06T14:13:30;0.77;;;0.70;;
83688;SDS011;74527;43.224;0.108;2024-01-06T14:15:56;0.90;;;0.80;;
83688;SDS011;74527;43.224;0.108;2024-01-06T14:18:22;2.90;;;1.00;;
83688;SDS011;74527;43.224;0.108;2024-01-06T14:20:48;3.00;;;1.42;;
83688;SDS011;74527;43.224;0.108;2024-01-06T14:23:16;0.90;;;0.90;;
83688;SDS011;74527;43.224;0.108;2024-01-06T14:25:42;4.88;;;0.93;;
83688;SDS011;74527;43.224;0.108;2024-01-06T14:28:08;5.00;;;0.98;;
83688;SDS011;74527;43.224;0.108;2024-01-06T14:30:34;1.40;;;0.90;;
83688;SDS011;74527;43.224;0.108;2024-01-06T14:33:00;2.40;;;0.88;;
83688;SDS011;74527;43.224;0.108;2024-01-06T14:35:26;2.00;;;0.57;;
83688;SDS011;74527;43.224;0.108;2024-01-06T14:37:52;3.50;;;0.68;;
83688;SDS011;74527;43.224;0.108;2024-01-06T14:40:19;3.83;;;1.40;;
83688;SDS011;74527;43.224;0.108;2024-01-06T14:42:45;2.47;;;0.70;;
83688;SDS011;74527;43.224;0.108;2024-01-06T14:45:11;1.00;;;0.70;;
83688;SDS011;74527;43.224;0.108;2024-01-06T14:47:37;2.00;;;0.73;;
83688;SDS011;74527;43.224;0.108;2024-01-06T14:50:03;0.60;;;0.60;;
83688;SDS011;74527;43.224;0.108;2024-01-06T14:52:29;1.65;;;0.85;;
83688;SDS011;74527;43.224;0.108;2024-01-06T14:54:55;5.50;;;0.75;;
83688;SDS011;74527;43.224;0.108;2024-01-06T14:57:21;2.67;;;0.70;;